Cathma — PJTL — position and weather

sailwx.info

Track history (hours):
 
Tides and Currents Weather Stations Pressure Air Temp Water Temp Dewpoint Dewpoint Depression Visibility Wind Speed Wind Dir Waves Ship Positions

Cathma

Last reported at 2016-Apr-23 20:13 UTC. Time now 2016-May-01 21:17 UTC.
Position N 55°41' E 015°34'.
Warning: this ship's position is 8 days out of date.

Length 112 m; draft 6.2 m.

Type: Cargo ship. MMSI: 306832000.

Date/timePositionNaut miles runAvg speedWind from/ knotsBaromVisibWave heightAir tempDewpointWater temp
2016-Apr-23 20:13N 55°41' E 015°34'711.2
2016-Apr-23 19:33N 55°37' E 015°22'1111.3
2016-Apr-23 18:33N 55°31' E 015°05'1111.3
2016-Apr-23 17:33N 55°26' E 014°47'1111.1
2016-Apr-23 16:33N 55°19' E 014°33'1111.1
2016-Apr-23 15:33N 55°10' E 014°21'1111.3
2016-Apr-23 14:33N 55°01' E 014°08'1211.6
2016-Apr-23 13:33N 54°57' E 013°49'1211.4
2016-Apr-23 12:28N 54°53' E 013°29'2211.1
2016-Apr-23 10:30N 54°45' E 012°54'1111.3
2016-Apr-23 09:33N 54°39' E 012°38'1211.7
2016-Apr-23 08:32N 54°32' E 012°21'1111.0
2016-Apr-23 07:33N 54°24' E 012°08'1211.7
2016-Apr-23 06:33N 54°25' E 011°48'1211.7
2016-Apr-23 05:33N 54°29' E 011°30'1212.1
2016-Apr-23 04:33N 54°35' E 011°11'1212.2
2016-Apr-23 03:33N 54°34' E 010°50'2210.5
2016-Apr-23 01:27N 54°27' E 010°14'6 6.5
2016-Apr-23 00:33N 54°22' E 010°09'1 1.0
2016-Apr-22 23:33N 54°22' E 010°07'7 6.7
2016-Apr-22 22:33N 54°20' E 009°56'30 6.0
2016-Apr-22 17:33N 54°01' E 009°18'8 8.1
2016-Apr-22 16:33N 53°54' E 009°10'1 1.1
2016-Apr-22 15:33N 53°53' E 009°08'6 5.7
2016-Apr-22 14:34N 53°51' E 008°60'1110.9
2016-Apr-22 13:33N 53°54' E 008°42'1111.1
2016-Apr-22 12:33N 53°59' E 008°25'1110.6
2016-Apr-22 11:33N 53°59' E 008°07'1211.5
2016-Apr-22 10:33N 53°56' E 007°48'1212.4
2016-Apr-22 09:33N 53°54' E 007°27'1212.4
2016-Apr-22 08:33N 53°51' E 007°07'1312.4
2016-Apr-22 07:33N 53°48' E 006°46'1212.2
2016-Apr-22 06:33N 53°45' E 006°26'1212.0
2016-Apr-22 05:32N 53°41' E 006°07'1111.6
2016-Apr-22 04:33N 53°38' E 005°48'1111.1
2016-Apr-22 03:33N 53°34' E 005°31'1110.6
2016-Apr-22 02:33N 53°31' E 005°14'1210.3
2016-Apr-22 01:23N 53°27' E 004°55'22 9.3
2016-Apr-21 23:03N 53°10' E 004°32'610.2
2016-Apr-21 22:28N 53°05' E 004°27'910.2
2016-Apr-21 21:33N 52°57' E 004°19'1010.2
2016-Apr-21 20:32N 52°47' E 004°11'1010.2
2016-Apr-21 19:32N 52°39' E 004°02'1010.5
2016-Apr-21 18:33N 52°30' E 003°54'1111.3
2016-Apr-21 17:33N 52°19' E 003°52'1211.8
2016-Apr-21 16:33N 52°07' E 003°55'8 8.2
2016-Apr-21 15:33N 51°60' E 004°02'1110.6
2016-Apr-21 14:33N 51°54' E 004°16'9 8.5
2016-Apr-21 13:33N 51°50' E 004°28'8 8.3
2016-Apr-21 12:33N 51°44' E 004°38'  
2016-Apr-18 23:07N 51°41' E 004°36'1 1.4
2016-Apr-18 22:32N 51°42' E 004°36'8 8.1
2016-Apr-18 21:32N 51°50' E 004°32'9 8.7
2016-Apr-18 20:33N 51°53' E 004°19'1010.1
2016-Apr-18 19:33N 51°59' E 004°06'1010.4
2016-Apr-18 18:33N 51°60' E 003°49'29 9.3
2016-Apr-18 15:22N 51°35' E 003°24'1113.6
2016-Apr-18 14:34N 51°26' E 003°35'4 4.3
2016-Apr-18 13:31N 51°28' E 003°41'0 0.0
2016-Apr-18 12:28N 51°28' E 003°41'0 0.0
2016-Apr-18 11:30N 51°28' E 003°41'0 0.0
2016-Apr-18 10:33N 51°28' E 003°41'0 0.0
2016-Apr-18 09:33N 51°28' E 003°41'0 0.0
2016-Apr-18 08:32N 51°28' E 003°41'0 0.0
2016-Apr-18 07:29N 51°28' E 003°41'0 0.0
2016-Apr-18 06:32N 51°28' E 003°41'0 0.0
2016-Apr-18 05:32N 51°28' E 003°41'0 0.0
2016-Apr-18 04:31N 51°28' E 003°41'0 0.0
2016-Apr-18 03:28N 51°28' E 003°41'0 0.0
2016-Apr-18 02:33N 51°28' E 003°41'0 0.0
2016-Apr-18 01:33N 51°28' E 003°41'0 0.0
2016-Apr-18 00:32N 51°28' E 003°41'0 0.0
2016-Apr-17 23:32N 51°28' E 003°41'0 0.0
2016-Apr-17 22:32N 51°28' E 003°41'0 0.0
2016-Apr-17 21:31N 51°28' E 003°41'0 0.0
2016-Apr-17 20:31N 51°28' E 003°41'0 0.0
2016-Apr-17 19:30N 51°28' E 003°41'0 0.0
2016-Apr-17 18:33N 51°28' E 003°41'0 0.0
2016-Apr-17 17:29N 51°28' E 003°41'0 0.0
2016-Apr-17 16:29N 51°28' E 003°41'0 0.0
2016-Apr-17 15:29N 51°28' E 003°41'0 0.0
2016-Apr-17 14:31N 51°28' E 003°41'0 0.0
2016-Apr-17 13:31N 51°28' E 003°41'0 0.0
2016-Apr-17 12:33N 51°28' E 003°41'0 0.0
2016-Apr-17 11:33N 51°28' E 003°41'0 0.0
2016-Apr-17 10:32N 51°28' E 003°41'0 0.0
2016-Apr-17 09:32N 51°28' E 003°41'0 0.0
2016-Apr-17 08:32N 51°28' E 003°41'0 0.0
2016-Apr-17 07:31N 51°28' E 003°41'0 0.0
2016-Apr-17 06:31N 51°28' E 003°41'0 0.0
2016-Apr-17 05:33N 51°28' E 003°41'0 0.0
2016-Apr-17 04:33N 51°28' E 003°41'0 0.0
2016-Apr-17 03:32N 51°28' E 003°41'0 0.0
2016-Apr-17 02:29N 51°28' E 003°41'0 0.0
2016-Apr-17 01:29N 51°28' E 003°41'0 0.0
2016-Apr-17 00:31N 51°28' E 003°41'0 0.0
2016-Apr-16 23:31N 51°28' E 003°41'0 0.0
2016-Apr-16 22:33N 51°28' E 003°41'0 0.0
2016-Apr-16 21:33N 51°28' E 003°41'0 0.0
2016-Apr-16 20:32N 51°28' E 003°41'0 0.0
2016-Apr-16 19:32N 51°28' E 003°41'0 0.0
2016-Apr-16 18:32N 51°28' E 003°41'0 0.0
2016-Apr-16 17:31N 51°28' E 003°41'0 0.0
2016-Apr-16 16:33N 51°28' E 003°41'0 0.0
2016-Apr-16 15:33N 51°28' E 003°41'0 0.0
2016-Apr-16 14:30N 51°28' E 003°41'0 0.0
2016-Apr-16 13:29N 51°28' E 003°41'0 0.0
2016-Apr-16 12:32N 51°28' E 003°41'0 0.0
2016-Apr-16 11:32N 51°28' E 003°41'0 0.0
2016-Apr-16 10:28N 51°28' E 003°41'0 0.0
2016-Apr-16 09:31N 51°28' E 003°41'0 0.0
2016-Apr-16 08:33N 51°28' E 003°41'0 0.0
2016-Apr-16 07:27N 51°28' E 003°41'0 0.0
2016-Apr-16 06:32N 51°28' E 003°41'0 0.0
2016-Apr-16 05:29N 51°28' E 003°41'0 0.0
2016-Apr-16 04:31N 51°28' E 003°41'0 0.0
2016-Apr-16 03:28N 51°28' E 003°41'0 0.0
2016-Apr-16 02:31N 51°28' E 003°41'0 0.0
2016-Apr-16 01:33N 51°28' E 003°41'0 0.0
2016-Apr-16 00:33N 51°28' E 003°41'0 0.0
2016-Apr-15 23:32N 51°28' E 003°41'0 0.0
2016-Apr-15 22:33N 51°28' E 003°41'5 5.2
2016-Apr-15 21:34N 51°27' E 003°33'1111.0
2016-Apr-15 20:33N 51°35' E 003°23'13611.3
2016-Apr-15 08:33N 53°35' E 005°09'1413.7
2016-Apr-15 07:34N 53°39' E 005°31'1413.7
2016-Apr-15 06:33N 53°44' E 005°53'1313.0
2016-Apr-15 05:33N 53°48' E 006°14'1212.1
2016-Apr-15 04:33N 53°51' E 006°33'1211.5
2016-Apr-15 03:33N 53°54' E 006°52'1111.0
2016-Apr-15 02:33N 53°57' E 007°10'1110.7
2016-Apr-15 01:33N 53°59' E 007°28'9 9.1
2016-Apr-15 00:33N 53°56' E 007°43'1110.7
2016-Apr-14 23:33N 53°51' E 007°59'1313.4
2016-Apr-14 22:33N 53°43' E 008°17'1514.9
2016-Apr-14 21:33N 53°32' E 008°34'1313.1
2016-Apr-14 20:33N 53°20' E 008°29'1111.2
2016-Apr-14 19:33N 53°09' E 008°38'5 4.9
2016-Apr-14 18:31N 53°06' E 008°44'0 0.0
2016-Apr-14 17:31N 53°06' E 008°44'0 0.0
2016-Apr-14 16:33N 53°06' E 008°44'0 0.0
2016-Apr-14 15:33N 53°06' E 008°44'0 0.0
2016-Apr-14 14:32N 53°06' E 008°44'0 0.0
2016-Apr-14 13:33N 53°06' E 008°44'0 0.0
2016-Apr-14 12:33N 53°06' E 008°44'0 0.0
2016-Apr-14 11:33N 53°06' E 008°44'0 0.0
2016-Apr-14 10:33N 53°06' E 008°44'0 0.0
2016-Apr-14 09:33N 53°06' E 008°44'0 0.0
2016-Apr-14 08:34N 53°06' E 008°44'0 0.0
2016-Apr-14 07:33N 53°06' E 008°44'0 0.0
2016-Apr-14 06:34N 53°06' E 008°44'0 0.0
2016-Apr-14 05:33N 53°06' E 008°44'0 0.0
2016-Apr-14 04:33N 53°06' E 008°44'0 0.0
2016-Apr-14 03:33N 53°06' E 008°44'6 5.8
2016-Apr-14 02:33N 53°10' E 008°37'1110.5
2016-Apr-14 01:33N 53°20' E 008°29'1211.9
2016-Apr-14 00:33N 53°31' E 008°33'10 9.8
2016-Apr-13 23:33N 53°39' E 008°24'1111.3
2016-Apr-13 22:33N 53°47' E 008°09'1110.7
2016-Apr-13 21:33N 53°52' E 007°53'9 9.0
2016-Apr-13 20:33N 53°60' E 008°00'  
Track history (hours):
 
Tides and Currents Weather Stations Pressure Air Temp Water Temp Dewpoint Dewpoint Depression Visibility Wind Speed Wind Dir Waves Ship Positions

Cathma

Last reported at 2016-Apr-23 20:13 UTC. Time now 2016-May-01 21:17 UTC.
Position N 55°41' E 015°34'.
Warning: this ship's position is 8 days out of date.

Length 112 m; draft 6.2 m.

Type: Cargo ship. MMSI: 306832000.

Date/timePositionNaut miles runAvg speedWind from/ knotsBaromVisibWave heightAir tempDewpointWater temp
2016-Apr-23 20:13N 55°41' E 015°34'711.2
2016-Apr-23 19:33N 55°37' E 015°22'1111.3
2016-Apr-23 18:33N 55°31' E 015°05'1111.3
2016-Apr-23 17:33N 55°26' E 014°47'1111.1
2016-Apr-23 16:33N 55°19' E 014°33'1111.1
2016-Apr-23 15:33N 55°10' E 014°21'1111.3
2016-Apr-23 14:33N 55°01' E 014°08'1211.6
2016-Apr-23 13:33N 54°57' E 013°49'1211.4
2016-Apr-23 12:28N 54°53' E 013°29'2211.1
2016-Apr-23 10:30N 54°45' E 012°54'1111.3
2016-Apr-23 09:33N 54°39' E 012°38'1211.7
2016-Apr-23 08:32N 54°32' E 012°21'1111.0
2016-Apr-23 07:33N 54°24' E 012°08'1211.7
2016-Apr-23 06:33N 54°25' E 011°48'1211.7
2016-Apr-23 05:33N 54°29' E 011°30'1212.1
2016-Apr-23 04:33N 54°35' E 011°11'1212.2
2016-Apr-23 03:33N 54°34' E 010°50'2210.5
2016-Apr-23 01:27N 54°27' E 010°14'6 6.5
2016-Apr-23 00:33N 54°22' E 010°09'1 1.0
2016-Apr-22 23:33N 54°22' E 010°07'7 6.7
2016-Apr-22 22:33N 54°20' E 009°56'30 6.0
2016-Apr-22 17:33N 54°01' E 009°18'8 8.1
2016-Apr-22 16:33N 53°54' E 009°10'1 1.1
2016-Apr-22 15:33N 53°53' E 009°08'6 5.7
2016-Apr-22 14:34N 53°51' E 008°60'1110.9
2016-Apr-22 13:33N 53°54' E 008°42'1111.1
2016-Apr-22 12:33N 53°59' E 008°25'1110.6
2016-Apr-22 11:33N 53°59' E 008°07'1211.5
2016-Apr-22 10:33N 53°56' E 007°48'1212.4
2016-Apr-22 09:33N 53°54' E 007°27'1212.4
2016-Apr-22 08:33N 53°51' E 007°07'1312.4
2016-Apr-22 07:33N 53°48' E 006°46'1212.2
2016-Apr-22 06:33N 53°45' E 006°26'1212.0
2016-Apr-22 05:32N 53°41' E 006°07'1111.6
2016-Apr-22 04:33N 53°38' E 005°48'1111.1
2016-Apr-22 03:33N 53°34' E 005°31'1110.6
2016-Apr-22 02:33N 53°31' E 005°14'1210.3
2016-Apr-22 01:23N 53°27' E 004°55'22 9.3
2016-Apr-21 23:03N 53°10' E 004°32'610.2
2016-Apr-21 22:28N 53°05' E 004°27'910.2
2016-Apr-21 21:33N 52°57' E 004°19'1010.2
2016-Apr-21 20:32N 52°47' E 004°11'1010.2
2016-Apr-21 19:32N 52°39' E 004°02'1010.5
2016-Apr-21 18:33N 52°30' E 003°54'1111.3
2016-Apr-21 17:33N 52°19' E 003°52'1211.8
2016-Apr-21 16:33N 52°07' E 003°55'8 8.2
2016-Apr-21 15:33N 51°60' E 004°02'1110.6
2016-Apr-21 14:33N 51°54' E 004°16'9 8.5
2016-Apr-21 13:33N 51°50' E 004°28'8 8.3
2016-Apr-21 12:33N 51°44' E 004°38'  
2016-Apr-18 23:07N 51°41' E 004°36'1 1.4
2016-Apr-18 22:32N 51°42' E 004°36'8 8.1
2016-Apr-18 21:32N 51°50' E 004°32'9 8.7
2016-Apr-18 20:33N 51°53' E 004°19'1010.1
2016-Apr-18 19:33N 51°59' E 004°06'1010.4
2016-Apr-18 18:33N 51°60' E 003°49'29 9.3
2016-Apr-18 15:22N 51°35' E 003°24'1113.6
2016-Apr-18 14:34N 51°26' E 003°35'4 4.3
2016-Apr-18 13:31N 51°28' E 003°41'0 0.0
2016-Apr-18 12:28N 51°28' E 003°41'0 0.0
2016-Apr-18 11:30N 51°28' E 003°41'0 0.0
2016-Apr-18 10:33N 51°28' E 003°41'0 0.0
2016-Apr-18 09:33N 51°28' E 003°41'0 0.0
2016-Apr-18 08:32N 51°28' E 003°41'0 0.0
2016-Apr-18 07:29N 51°28' E 003°41'0 0.0
2016-Apr-18 06:32N 51°28' E 003°41'0 0.0
2016-Apr-18 05:32N 51°28' E 003°41'0 0.0
2016-Apr-18 04:31N 51°28' E 003°41'0 0.0
2016-Apr-18 03:28N 51°28' E 003°41'0 0.0
2016-Apr-18 02:33N 51°28' E 003°41'0 0.0
2016-Apr-18 01:33N 51°28' E 003°41'0 0.0
2016-Apr-18 00:32N 51°28' E 003°41'0 0.0
2016-Apr-17 23:32N 51°28' E 003°41'0 0.0
2016-Apr-17 22:32N 51°28' E 003°41'0 0.0
2016-Apr-17 21:31N 51°28' E 003°41'0 0.0
2016-Apr-17 20:31N 51°28' E 003°41'0 0.0
2016-Apr-17 19:30N 51°28' E 003°41'0 0.0
2016-Apr-17 18:33N 51°28' E 003°41'0 0.0
2016-Apr-17 17:29N 51°28' E 003°41'0 0.0
2016-Apr-17 16:29N 51°28' E 003°41'0 0.0
2016-Apr-17 15:29N 51°28' E 003°41'0 0.0
2016-Apr-17 14:31N 51°28' E 003°41'0 0.0
2016-Apr-17 13:31N 51°28' E 003°41'0 0.0
2016-Apr-17 12:33N 51°28' E 003°41'0 0.0
2016-Apr-17 11:33N 51°28' E 003°41'0 0.0
2016-Apr-17 10:32N 51°28' E 003°41'0 0.0
2016-Apr-17 09:32N 51°28' E 003°41'0 0.0
2016-Apr-17 08:32N 51°28' E 003°41'0 0.0
2016-Apr-17 07:31N 51°28' E 003°41'0 0.0
2016-Apr-17 06:31N 51°28' E 003°41'0 0.0
2016-Apr-17 05:33N 51°28' E 003°41'0 0.0
2016-Apr-17 04:33N 51°28' E 003°41'0 0.0
2016-Apr-17 03:32N 51°28' E 003°41'0 0.0
2016-Apr-17 02:29N 51°28' E 003°41'0 0.0
2016-Apr-17 01:29N 51°28' E 003°41'0 0.0
2016-Apr-17 00:31N 51°28' E 003°41'0 0.0
2016-Apr-16 23:31N 51°28' E 003°41'0 0.0
2016-Apr-16 22:33N 51°28' E 003°41'0 0.0
2016-Apr-16 21:33N 51°28' E 003°41'0 0.0
2016-Apr-16 20:32N 51°28' E 003°41'0 0.0
2016-Apr-16 19:32N 51°28' E 003°41'0 0.0
2016-Apr-16 18:32N 51°28' E 003°41'0 0.0
2016-Apr-16 17:31N 51°28' E 003°41'0 0.0
2016-Apr-16 16:33N 51°28' E 003°41'0 0.0
2016-Apr-16 15:33N 51°28' E 003°41'0 0.0
2016-Apr-16 14:30N 51°28' E 003°41'0 0.0
2016-Apr-16 13:29N 51°28' E 003°41'0 0.0
2016-Apr-16 12:32N 51°28' E 003°41'0 0.0
2016-Apr-16 11:32N 51°28' E 003°41'0 0.0
2016-Apr-16 10:28N 51°28' E 003°41'0 0.0
2016-Apr-16 09:31N 51°28' E 003°41'0 0.0
2016-Apr-16 08:33N 51°28' E 003°41'0 0.0
2016-Apr-16 07:27N 51°28' E 003°41'0 0.0
2016-Apr-16 06:32N 51°28' E 003°41'0 0.0
2016-Apr-16 05:29N 51°28' E 003°41'0 0.0
2016-Apr-16 04:31N 51°28' E 003°41'0 0.0
2016-Apr-16 03:28N 51°28' E 003°41'0 0.0
2016-Apr-16 02:31N 51°28' E 003°41'0 0.0
2016-Apr-16 01:33N 51°28' E 003°41'0 0.0
2016-Apr-16 00:33N 51°28' E 003°41'0 0.0
2016-Apr-15 23:32N 51°28' E 003°41'0 0.0
2016-Apr-15 22:33N 51°28' E 003°41'5 5.2
2016-Apr-15 21:34N 51°27' E 003°33'1111.0
2016-Apr-15 20:33N 51°35' E 003°23'13611.3
2016-Apr-15 08:33N 53°35' E 005°09'1413.7
2016-Apr-15 07:34N 53°39' E 005°31'1413.7
2016-Apr-15 06:33N 53°44' E 005°53'1313.0
2016-Apr-15 05:33N 53°48' E 006°14'1212.1
2016-Apr-15 04:33N 53°51' E 006°33'1211.5
2016-Apr-15 03:33N 53°54' E 006°52'1111.0
2016-Apr-15 02:33N 53°57' E 007°10'1110.7
2016-Apr-15 01:33N 53°59' E 007°28'9 9.1
2016-Apr-15 00:33N 53°56' E 007°43'1110.7
2016-Apr-14 23:33N 53°51' E 007°59'1313.4
2016-Apr-14 22:33N 53°43' E 008°17'1514.9
2016-Apr-14 21:33N 53°32' E 008°34'1313.1
2016-Apr-14 20:33N 53°20' E 008°29'1111.2
2016-Apr-14 19:33N 53°09' E 008°38'5 4.9
2016-Apr-14 18:31N 53°06' E 008°44'0 0.0
2016-Apr-14 17:31N 53°06' E 008°44'0 0.0
2016-Apr-14 16:33N 53°06' E 008°44'0 0.0
2016-Apr-14 15:33N 53°06' E 008°44'0 0.0
2016-Apr-14 14:32N 53°06' E 008°44'0 0.0
2016-Apr-14 13:33N 53°06' E 008°44'0 0.0
2016-Apr-14 12:33N 53°06' E 008°44'0 0.0
2016-Apr-14 11:33N 53°06' E 008°44'0 0.0
2016-Apr-14 10:33N 53°06' E 008°44'0 0.0
2016-Apr-14 09:33N 53°06' E 008°44'0 0.0
2016-Apr-14 08:34N 53°06' E 008°44'0 0.0
2016-Apr-14 07:33N 53°06' E 008°44'0 0.0
2016-Apr-14 06:34N 53°06' E 008°44'0 0.0
2016-Apr-14 05:33N 53°06' E 008°44'0 0.0
2016-Apr-14 04:33N 53°06' E 008°44'0 0.0
2016-Apr-14 03:33N 53°06' E 008°44'6 5.8
2016-Apr-14 02:33N 53°10' E 008°37'1110.5
2016-Apr-14 01:33N 53°20' E 008°29'1211.9
2016-Apr-14 00:33N 53°31' E 008°33'10 9.8
2016-Apr-13 23:33N 53°39' E 008°24'1111.3
2016-Apr-13 22:33N 53°47' E 008°09'1110.7
2016-Apr-13 21:33N 53°52' E 007°53'9 9.0
2016-Apr-13 20:33N 53°60' E 008°00'  

Dump ship's entire track history